Terminal Aerodrome Forecast
Issued by NWS

Home | Current Version | Previous Version | Text Only | Print | Product List | Glossary On
Versions: 1 2 3 4 5 6 7 8 9 10 11 12 13 14 15 16
000
FTUS46 KPDT 292320
TAFALW
TAF
KALW 292320Z 3000/3024 24012G20KT P6SM BKN080
     FM300300 20007KT P6SM BKN080
     FM301500 20012KT P6SM -RA OVC050
     FM302000 23014G20KT P6SM SCT050 BKN080=

USA.gov is the U.S. government's official web portal to all federal, state and local government web resources and services.